Time;durP1;ratioP1;P1;durP2;ratioP2;P2;SDS_P1;SDS_P2;PMS_P1;PMS_P2;Temp;Humidity;BMP_temperature;BMP_pressure;BME280_temperature;BME280_humidity;BME280_pressure;Samples;Min_cycle;Max_cycle;Signal;HPM_P1;HPM_P2
2022/11/05 00:10:22;;;;;;;;;;;10.50;99.90;;;;;;5053518;28;19979;-67
2022/11/05 00:18:20;;;;;;;;;;;10.60;99.90;;;;;;5054545;28;19975;-68
2022/11/05 00:20:50;;;;;;;;;;;10.60;99.90;;;;;;5054290;28;19968;-68
2022/11/05 00:26:05;;;;;;;;;;;10.80;99.90;;;;;;5054648;28;19967;-68
2022/11/05 00:28:33;;;;;;;;;;;10.70;99.90;;;;;;5054476;28;19972;-69
2022/11/05 00:31:02;;;;;;;;;;;10.80;99.90;;;;;;5053666;28;20001;-68
2022/11/05 00:33:30;;;;;;;;;;;10.80;99.90;;;;;;5054592;28;19972;-68
2022/11/05 00:35:58;;;;;;;;;;;10.70;99.90;;;;;;5054318;28;19971;-68
2022/11/05 00:38:25;;;;;;;;;;;10.70;99.90;;;;;;5045889;28;19968;-68
2022/11/05 00:40:53;;;;;;;;;;;10.60;99.90;;;;;;5053939;28;19968;-69
2022/11/05 00:46:07;;;;;;;;;;;10.50;99.90;;;;;;5054284;28;19974;-69
2022/11/05 00:51:24;;;;;;;;;;;10.50;99.90;;;;;;5034934;28;19974;-68
2022/11/05 00:53:52;;;;;;;;;;;10.50;99.90;;;;;;5034099;28;19969;-68
2022/11/05 00:56:21;;;;;;;;;;;10.60;99.90;;;;;;5033447;28;20214;-69
2022/11/05 00:58:50;;;;;;;;;;;10.70;99.90;;;;;;5033927;28;20377;-69
2022/11/05 01:01:18;;;;;;;;;;;10.70;99.90;;;;;;5033814;28;19979;-68
2022/11/05 01:03:46;;;;;;;;;;;10.60;99.90;;;;;;5033950;28;19976;-69
2022/11/05 01:06:19;;;;;;;;;;;10.60;99.90;;;;;;5048831;28;19974;-66
2022/11/05 01:08:46;;;;;;;;;;;10.50;99.90;;;;;;5046459;28;19973;-68
2022/11/05 01:11:31;;;;;;;;;;;10.40;99.90;;;;;;5053552;28;19979;-69
2022/11/05 01:14:02;;;;;;;;;;;10.30;99.90;;;;;;5053839;28;19968;-68
2022/11/05 01:16:30;;;;;;;;;;;10.50;99.90;;;;;;5053649;28;20070;-68
2022/11/05 01:18:58;;;;;;;;;;;10.50;99.90;;;;;;5053085;28;20441;-66
2022/11/05 01:21:26;;;;;;;;;;;10.40;99.90;;;;;;5052878;28;19968;-69
2022/11/05 01:23:53;;;;;;;;;;;10.30;99.90;;;;;;5033383;28;20445;-69
2022/11/05 01:26:21;;;;;;;;;;;10.30;99.90;;;;;;5033597;28;19972;-69
2022/11/05 01:28:50;;;;;;;;;;;10.30;99.90;;;;;;5033238;28;19968;-68
2022/11/05 01:31:19;;;;;;;;;;;10.40;99.90;;;;;;5032832;28;20441;-68
2022/11/05 01:33:47;;;;;;;;;;;10.40;99.90;;;;;;5033272;28;20064;-69
2022/11/05 01:36:15;;;;;;;;;;;10.40;99.90;;;;;;5042082;28;20066;-69
2022/11/05 01:38:43;;;;;;;;;;;10.30;99.90;;;;;;5045399;28;19975;-69
2022/11/05 01:41:11;;;;;;;;;;;10.20;99.90;;;;;;5052948;28;19968;-69
2022/11/05 01:43:48;;;;;;;;;;;10.20;99.90;;;;;;5053100;28;19968;-69
2022/11/05 01:46:17;;;;;;;;;;;10.20;99.90;;;;;;5053092;28;19976;-70
2022/11/05 01:48:48;;;;;;;;;;;10.20;99.90;;;;;;5052632;28;20453;-69
2022/11/05 01:51:18;;;;;;;;;;;10.20;99.90;;;;;;5033014;28;20349;-68
2022/11/05 01:53:48;;;;;;;;;;;10.20;99.90;;;;;;5032975;28;19968;-69
2022/11/05 01:56:17;;;;;;;;;;;10.10;99.90;;;;;;5040375;28;20364;-68
2022/11/05 01:58:47;;;;;;;;;;;10.10;99.90;;;;;;5052547;28;19976;-68
2022/11/05 02:01:15;;;;;;;;;;;10.00;99.90;;;;;;5052570;28;19968;-68
2022/11/05 02:03:44;;;;;;;;;;;10.00;99.90;;;;;;5052649;28;20444;-68
2022/11/05 02:06:15;;;;;;;;;;;10.00;99.90;;;;;;5052593;28;19976;-69
2022/11/05 02:08:49;;;;;;;;;;;10.00;99.90;;;;;;5045111;28;19968;-69
2022/11/05 02:11:18;;;;;;;;;;;9.90;99.90;;;;;;5052146;28;19983;-69
2022/11/05 02:13:45;;;;;;;;;;;9.90;99.90;;;;;;5052385;28;19968;-68
2022/11/05 02:16:18;;;;;;;;;;;9.90;99.90;;;;;;5052530;28;19968;-68
2022/11/05 02:18:50;;;;;;;;;;;10.00;99.90;;;;;;5052401;28;20464;-68
2022/11/05 02:21:37;;;;;;;;;;;10.00;99.90;;;;;;5052178;28;19975;-68
2022/11/05 02:24:19;;;;;;;;;;;10.10;99.90;;;;;;5052847;28;19983;-69
2022/11/05 02:26:57;;;;;;;;;;;10.20;99.90;;;;;;5052465;28;19974;-68
2022/11/05 02:29:49;;;;;;;;;;;10.20;99.90;;;;;;5052235;28;19968;-68
2022/11/05 02:32:23;;;;;;;;;;;10.30;99.90;;;;;;5031911;28;19995;-68
2022/11/05 02:34:54;;;;;;;;;;;10.30;99.90;;;;;;5032394;28;20503;-68
2022/11/05 02:37:27;;;;;;;;;;;10.30;99.90;;;;;;5042256;28;19976;-68
2022/11/05 02:40:01;;;;;;;;;;;10.30;99.90;;;;;;5051754;28;19968;-68
2022/11/05 02:42:30;;;;;;;;;;;10.40;99.90;;;;;;5052111;28;19972;-68
2022/11/05 02:45:04;;;;;;;;;;;10.40;99.90;;;;;;5052234;28;19976;-69
2022/11/05 02:47:37;;;;;;;;;;;10.40;99.90;;;;;;5051878;28;19968;-68
2022/11/05 02:50:09;;;;;;;;;;;10.40;99.90;;;;;;5051635;28;19979;-68
2022/11/05 02:52:40;;;;;;;;;;;10.50;99.90;;;;;;5051960;28;19968;-67
2022/11/05 02:55:13;;;;;;;;;;;10.50;99.90;;;;;;5052483;28;19972;-68
2022/11/05 02:57:43;;;;;;;;;;;10.50;99.90;;;;;;5051996;28;19980;-68
2022/11/05 03:00:26;;;;;;;;;;;10.50;99.90;;;;;;5051761;28;19972;-68
2022/11/05 03:02:55;;;;;;;;;;;10.50;99.90;;;;;;5051318;28;19972;-68
2022/11/05 03:05:28;;;;;;;;;;;10.40;99.90;;;;;;5051618;28;19991;-68
2022/11/05 03:08:00;;;;;;;;;;;10.50;99.90;;;;;;5043502;28;19964;-68
2022/11/05 03:10:38;;;;;;;;;;;10.50;99.90;;;;;;5051496;28;20365;-69
2022/11/05 03:13:11;;;;;;;;;;;10.60;99.90;;;;;;5051706;28;19975;-68
2022/11/05 03:15:46;;;;;;;;;;;10.60;99.90;;;;;;5051735;28;20067;-68
2022/11/05 03:18:20;;;;;;;;;;;10.50;99.90;;;;;;5051704;28;19968;-68
2022/11/05 03:20:49;;;;;;;;;;;10.30;99.90;;;;;;5051241;28;19972;-69
2022/11/05 03:23:21;;;;;;;;;;;10.30;99.90;;;;;;5051756;28;20491;-69
2022/11/05 03:25:51;;;;;;;;;;;10.30;99.90;;;;;;5051791;28;19968;-69
2022/11/05 03:28:21;;;;;;;;;;;10.40;99.90;;;;;;5051424;28;20074;-66
2022/11/05 03:30:50;;;;;;;;;;;10.50;99.90;;;;;;5051551;28;19975;-68
2022/11/05 03:33:21;;;;;;;;;;;10.60;99.90;;;;;;5051822;28;20474;-68
2022/11/05 03:35:51;;;;;;;;;;;10.60;99.90;;;;;;5051921;28;19964;-69
2022/11/05 03:38:21;;;;;;;;;;;10.70;99.90;;;;;;5042325;28;20433;-68
2022/11/05 03:40:51;;;;;;;;;;;10.70;99.90;;;;;;5051658;28;20018;-68
2022/11/05 03:43:20;;;;;;;;;;;10.70;99.90;;;;;;5052052;28;19976;-69
2022/11/05 03:45:52;;;;;;;;;;;10.70;99.90;;;;;;5054910;28;20361;-69
2022/11/05 03:48:23;;;;;;;;;;;10.70;99.90;;;;;;5055260;28;19990;-68
2022/11/05 03:50:53;;;;;;;;;;;10.60;99.90;;;;;;5054778;28;19972;-69
2022/11/05 03:53:23;;;;;;;;;;;10.70;99.90;;;;;;5055010;28;19986;-69
2022/11/05 03:55:53;;;;;;;;;;;10.50;99.90;;;;;;5053497;28;19974;-67
2022/11/05 03:58:22;;;;;;;;;;;10.40;99.90;;;;;;5055229;28;20006;-69
2022/11/05 04:00:50;;;;;;;;;;;10.50;99.90;;;;;;5054648;28;19968;-68
2022/11/05 04:03:18;;;;;;;;;;;10.60;99.90;;;;;;5054940;28;19978;-68
2022/11/05 04:13:22;;;;;;;;;;;10.70;99.90;;;;;;5054696;28;19975;-69
2022/11/05 04:14:17;;;;;;;;;;;10.70;99.90;;;;;;4973656;28;19980;-68
2022/11/05 04:25:08;;;;;;;;;;;9.90;99.90;;;;;;5034838;28;19978;-67
2022/11/05 04:27:36;;;;;;;;;;;9.80;99.90;;;;;;5034644;28;19968;-68
2022/11/05 04:30:18;;;;;;;;;;;9.70;99.90;;;;;;5047930;28;20457;-68
2022/11/05 04:32:59;;;;;;;;;;;9.70;99.90;;;;;;5054380;28;20502;-69
2022/11/05 04:35:27;;;;;;;;;;;9.70;99.90;;;;;;5056655;28;19968;-68
2022/11/05 04:37:56;;;;;;;;;;;9.80;99.90;;;;;;5067071;28;19964;-67
2022/11/05 04:40:24;;;;;;;;;;;9.80;99.90;;;;;;5071930;28;19968;-67
2022/11/05 04:42:53;;;;;;;;;;;9.90;99.90;;;;;;5074579;28;20367;-67
2022/11/05 04:45:20;;;;;;;;;;;9.80;99.90;;;;;;5074124;28;20070;-69
2022/11/05 04:47:48;;;;;;;;;;;9.80;99.90;;;;;;5045128;28;20404;-67
2022/11/05 04:50:16;;;;;;;;;;;9.90;99.90;;;;;;5041802;28;19964;-68
2022/11/05 04:52:44;;;;;;;;;;;9.90;99.90;;;;;;5051703;28;20467;-68
2022/11/05 04:55:13;;;;;;;;;;;10.00;99.90;;;;;;5049437;28;19968;-68
2022/11/05 04:57:41;;;;;;;;;;;10.00;99.90;;;;;;5038507;28;19965;-68
2022/11/05 05:00:09;;;;;;;;;;;10.10;99.90;;;;;;5044170;28;19980;-68
2022/11/05 05:02:37;;;;;;;;;;;10.10;99.90;;;;;;5050383;28;20340;-68
2022/11/05 05:05:06;;;;;;;;;;;10.10;99.90;;;;;;5035209;28;20368;-68
2022/11/05 05:07:34;;;;;;;;;;;10.10;99.90;;;;;;5040704;28;20349;-68
2022/11/05 05:10:02;;;;;;;;;;;10.10;99.90;;;;;;5032727;28;19965;-68
2022/11/05 05:12:31;;;;;;;;;;;10.20;99.90;;;;;;5032926;28;20356;-68
2022/11/05 05:14:59;;;;;;;;;;;10.40;99.90;;;;;;5033002;28;20495;-68
2022/11/05 05:17:27;;;;;;;;;;;10.50;99.90;;;;;;5035160;28;19982;-69
2022/11/05 05:22:40;;;;;;;;;;;10.60;99.90;;;;;;5046024;28;19972;-68
2022/11/05 05:25:08;;;;;;;;;;;10.70;99.90;;;;;;5046821;28;19968;-68
2022/11/05 05:27:37;;;;;;;;;;;10.70;99.90;;;;;;5032857;28;19964;-68
2022/11/05 05:30:05;;;;;;;;;;;10.80;99.90;;;;;;5045179;28;19998;-68
2022/11/05 05:32:33;;;;;;;;;;;10.80;99.90;;;;;;5051647;28;20355;-68
2022/11/05 05:35:00;;;;;;;;;;;10.80;99.90;;;;;;5051209;28;19964;-69
2022/11/05 05:37:28;;;;;;;;;;;10.90;99.90;;;;;;5042924;28;20479;-68
2022/11/05 05:39:56;;;;;;;;;;;10.90;99.90;;;;;;5050862;28;19964;-67
2022/11/05 05:42:23;;;;;;;;;;;10.80;99.90;;;;;;5036783;28;20434;-68
2022/11/05 05:44:53;;;;;;;;;;;10.70;99.90;;;;;;5032391;28;20471;-68
2022/11/05 05:47:20;;;;;;;;;;;10.80;99.90;;;;;;5032566;28;19969;-68
2022/11/05 05:49:48;;;;;;;;;;;10.80;99.90;;;;;;5039110;28;20348;-66
2022/11/05 05:52:16;;;;;;;;;;;10.90;99.90;;;;;;5050852;28;19964;-68
2022/11/05 05:54:44;;;;;;;;;;;10.90;99.90;;;;;;5038214;28;19964;-69
2022/11/05 05:57:11;;;;;;;;;;;10.80;99.90;;;;;;5094133;22;20449;-64
2022/11/05 05:59:39;;;;;;;;;;;10.90;99.90;;;;;;5056589;28;19968;-66
2022/11/05 06:02:09;;;;;;;;;;;10.90;99.90;;;;;;5071668;28;19974;-66
2022/11/05 06:04:37;;;;;;;;;;;10.80;99.90;;;;;;5058924;28;20502;-67
2022/11/05 06:07:05;;;;;;;;;;;10.70;99.90;;;;;;5059745;28;19978;-67
2022/11/05 06:09:32;;;;;;;;;;;10.70;99.90;;;;;;5071039;28;19972;-66
2022/11/05 06:12:00;;;;;;;;;;;10.70;99.90;;;;;;5067393;28;19964;-66
2022/11/05 06:14:28;;;;;;;;;;;10.70;99.90;;;;;;5071209;28;19964;-66
2022/11/05 06:16:56;;;;;;;;;;;10.70;99.90;;;;;;5057814;28;20541;-66
2022/11/05 06:19:25;;;;;;;;;;;10.60;99.90;;;;;;5048735;28;20337;-63
2022/11/05 06:21:52;;;;;;;;;;;10.50;99.90;;;;;;5052433;28;19964;-63
2022/11/05 06:24:20;;;;;;;;;;;10.50;99.90;;;;;;5052502;28;20064;-63
2022/11/05 06:26:48;;;;;;;;;;;10.50;99.90;;;;;;5051849;28;20506;-64
2022/11/05 06:29:15;;;;;;;;;;;10.60;99.90;;;;;;5052117;28;19971;-65
2022/11/05 06:31:43;;;;;;;;;;;10.60;99.90;;;;;;5052399;28;19965;-65
2022/11/05 06:34:11;;;;;;;;;;;10.60;99.90;;;;;;5051740;28;19975;-66
2022/11/05 06:36:40;;;;;;;;;;;10.60;99.90;;;;;;5057030;28;20475;-66
2022/11/05 06:39:09;;;;;;;;;;;10.60;99.90;;;;;;5051514;28;19974;-66
2022/11/05 06:41:37;;;;;;;;;;;10.70;99.90;;;;;;5048155;28;19972;-66
2022/11/05 06:44:25;;;;;;;;;;;10.80;99.90;;;;;;5051675;28;19968;-66
2022/11/05 06:46:52;;;;;;;;;;;10.80;99.90;;;;;;5036042;28;19972;-66
2022/11/05 06:49:23;;;;;;;;;;;10.80;99.90;;;;;;5047464;28;19978;-67
2022/11/05 06:51:52;;;;;;;;;;;10.90;99.90;;;;;;5050010;28;20050;-66
2022/11/05 06:54:20;;;;;;;;;;;10.90;99.90;;;;;;5051908;28;20384;-66
2022/11/05 06:56:47;;;;;;;;;;;11.00;99.90;;;;;;5051465;28;19968;-66
2022/11/05 06:59:15;;;;;;;;;;;11.00;99.90;;;;;;5051731;28;19972;-66
2022/11/05 07:01:43;;;;;;;;;;;10.90;99.90;;;;;;5047870;28;20030;-66
2022/11/05 07:04:11;;;;;;;;;;;11.00;99.90;;;;;;5047652;28;19968;-66
2022/11/05 07:06:39;;;;;;;;;;;10.90;99.90;;;;;;5039926;28;20348;-66
2022/11/05 07:09:08;;;;;;;;;;;10.90;99.90;;;;;;5039205;28;20520;-64
2022/11/05 07:11:36;;;;;;;;;;;11.00;99.90;;;;;;5039705;28;19968;-64
2022/11/05 07:14:03;;;;;;;;;;;10.90;99.90;;;;;;5039505;28;19968;-63
2022/11/05 07:16:31;;;;;;;;;;;10.90;99.90;;;;;;5038370;28;20541;-66
2022/11/05 07:18:59;;;;;;;;;;;10.90;99.90;;;;;;5038735;28;19972;-66
2022/11/05 07:21:27;;;;;;;;;;;11.00;99.90;;;;;;5043784;28;19972;-66
2022/11/05 07:23:55;;;;;;;;;;;11.00;99.90;;;;;;5043099;28;20642;-67
2022/11/05 07:26:25;;;;;;;;;;;10.90;99.90;;;;;;5042928;28;19971;-66
2022/11/05 07:29:00;;;;;;;;;;;10.90;99.90;;;;;;5042521;28;20453;-66
2022/11/05 07:31:28;;;;;;;;;;;10.80;99.90;;;;;;5041488;28;19994;-66
2022/11/05 07:33:57;;;;;;;;;;;10.70;99.90;;;;;;5043697;28;19976;-64
2022/11/05 07:36:25;;;;;;;;;;;10.70;99.90;;;;;;5040531;28;20058;-63
2022/11/05 07:38:53;;;;;;;;;;;10.50;99.90;;;;;;5040862;28;20404;-66
2022/11/05 07:41:28;;;;;;;;;;;10.60;99.90;;;;;;5042147;28;19972;-64
2022/11/05 07:43:56;;;;;;;;;;;10.70;99.90;;;;;;5042781;28;19972;-65
2022/11/05 07:46:24;;;;;;;;;;;10.70;99.90;;;;;;5043430;28;20021;-63
2022/11/05 07:48:51;;;;;;;;;;;10.90;99.90;;;;;;5041051;28;19972;-63
2022/11/05 07:51:19;;;;;;;;;;;10.90;99.90;;;;;;5043591;28;20342;-63
2022/11/05 07:53:47;;;;;;;;;;;11.00;99.90;;;;;;5043589;28;19971;-62
2022/11/05 07:56:15;;;;;;;;;;;11.20;99.90;;;;;;5043189;28;20520;-64
2022/11/05 07:58:44;;;;;;;;;;;11.20;99.90;;;;;;5041669;28;19979;-64
2022/11/05 08:01:12;;;;;;;;;;;11.40;99.90;;;;;;5043065;28;19988;-63
2022/11/05 08:03:40;;;;;;;;;;;11.50;99.90;;;;;;5043310;28;20593;-63
2022/11/05 08:06:07;;;;;;;;;;;11.70;99.90;;;;;;5043360;28;19976;-64
2022/11/05 08:08:35;;;;;;;;;;;11.50;99.90;;;;;;5042118;28;20285;-63
2022/11/05 08:11:04;;;;;;;;;;;11.60;99.90;;;;;;5042515;28;19978;-64
2022/11/05 08:13:32;;;;;;;;;;;11.70;99.90;;;;;;5042890;28;20361;-66
2022/11/05 08:16:01;;;;;;;;;;;11.70;99.90;;;;;;5042596;28;19972;-66
2022/11/05 08:18:31;;;;;;;;;;;11.70;99.90;;;;;;5042455;28;20492;-66
2022/11/05 08:20:59;;;;;;;;;;;11.70;99.90;;;;;;5041585;28;19980;-63
2022/11/05 08:23:27;;;;;;;;;;;11.80;99.90;;;;;;5042912;28;20504;-64
2022/11/05 08:25:55;;;;;;;;;;;11.80;99.90;;;;;;5042526;28;19972;-64
2022/11/05 08:28:23;;;;;;;;;;;11.70;99.90;;;;;;5042661;28;19968;-63
2022/11/05 08:30:52;;;;;;;;;;;11.60;99.90;;;;;;5039650;28;20349;-63
2022/11/05 08:33:21;;;;;;;;;;;11.70;99.90;;;;;;5041513;28;20047;-64
2022/11/05 08:35:49;;;;;;;;;;;11.70;99.90;;;;;;5042609;28;19964;-63
2022/11/05 08:38:18;;;;;;;;;;;11.70;99.90;;;;;;5042699;28;19975;-63
2022/11/05 08:40:46;;;;;;;;;;;11.80;99.90;;;;;;5040700;28;19968;-64
2022/11/05 08:43:14;;;;;;;;;;;11.80;99.90;;;;;;5042784;28;20298;-64
2022/11/05 08:45:42;;;;;;;;;;;12.00;99.90;;;;;;5042500;28;20854;-64
2022/11/05 08:48:10;;;;;;;;;;;12.00;99.90;;;;;;5042433;28;19981;-64
2022/11/05 08:50:39;;;;;;;;;;;12.10;99.90;;;;;;5041050;28;19972;-66
2022/11/05 08:53:08;;;;;;;;;;;12.10;99.90;;;;;;5042807;28;19976;-67
2022/11/05 08:55:37;;;;;;;;;;;12.20;99.90;;;;;;5041989;28;19975;-64
2022/11/05 08:58:06;;;;;;;;;;;12.30;99.90;;;;;;5042089;28;20520;-64
2022/11/05 09:00:35;;;;;;;;;;;12.20;99.90;;;;;;5040247;28;19972;-63
2022/11/05 09:03:04;;;;;;;;;;;12.40;99.90;;;;;;5042098;28;20688;-63
2022/11/05 09:05:36;;;;;;;;;;;12.60;99.90;;;;;;5042212;28;19972;-63
2022/11/05 09:08:06;;;;;;;;;;;12.60;99.90;;;;;;5041992;28;20456;-63
2022/11/05 09:10:33;;;;;;;;;;;12.60;99.90;;;;;;5041182;28;19975;-63
2022/11/05 09:13:01;;;;;;;;;;;13.00;99.90;;;;;;5041955;28;20357;-63
2022/11/05 09:15:30;;;;;;;;;;;13.20;99.90;;;;;;5041291;28;19972;-63
2022/11/05 09:17:58;;;;;;;;;;;13.10;99.90;;;;;;5041390;28;19983;-63
2022/11/05 09:20:25;;;;;;;;;;;13.20;99.90;;;;;;5039379;28;19976;-64
2022/11/05 09:22:53;;;;;;;;;;;13.60;99.90;;;;;;5041554;28;20390;-64
2022/11/05 09:25:22;;;;;;;;;;;13.80;99.90;;;;;;5040781;28;19968;-64
2022/11/05 09:27:50;;;;;;;;;;;13.70;99.90;;;;;;5040715;28;19964;-64
2022/11/05 09:30:18;;;;;;;;;;;14.00;99.90;;;;;;5039544;28;19992;-64
2022/11/05 09:32:46;;;;;;;;;;;13.90;99.90;;;;;;5041946;28;19962;-63
2022/11/05 09:35:14;;;;;;;;;;;13.90;99.90;;;;;;5041868;28;19979;-64
2022/11/05 09:37:41;;;;;;;;;;;13.80;99.90;;;;;;5041567;28;19972;-63
2022/11/05 09:40:15;;;;;;;;;;;13.80;99.90;;;;;;5039910;28;19975;-64
2022/11/05 09:42:45;;;;;;;;;;;13.90;99.90;;;;;;5040490;28;20353;-63
2022/11/05 09:45:15;;;;;;;;;;;13.50;99.90;;;;;;5041849;28;19967;-63
2022/11/05 09:47:44;;;;;;;;;;;13.20;99.90;;;;;;5041539;28;19979;-64
2022/11/05 09:50:14;;;;;;;;;;;13.10;99.90;;;;;;5039700;28;20325;-64
2022/11/05 09:52:42;;;;;;;;;;;13.00;99.90;;;;;;5042032;28;19972;-63
2022/11/05 09:55:17;;;;;;;;;;;12.80;99.90;;;;;;5040887;28;19972;-63
2022/11/05 09:57:49;;;;;;;;;;;12.50;99.90;;;;;;5041175;28;19972;-63
2022/11/05 10:00:17;;;;;;;;;;;12.70;99.90;;;;;;5039849;28;20356;-64
2022/11/05 10:02:47;;;;;;;;;;;12.80;99.90;;;;;;5041401;28;19978;-64
2022/11/05 10:05:15;;;;;;;;;;;13.00;99.90;;;;;;5041504;28;20345;-64
2022/11/05 10:07:45;;;;;;;;;;;13.60;99.90;;;;;;5040693;28;19974;-64
2022/11/05 10:10:21;;;;;;;;;;;14.10;99.90;;;;;;5039195;28;19976;-63
2022/11/05 10:12:53;;;;;;;;;;;14.70;99.90;;;;;;5041177;28;19971;-64
2022/11/05 10:15:22;;;;;;;;;;;15.10;99.90;;;;;;5039867;28;19964;-63
2022/11/05 10:17:53;;;;;;;;;;;15.00;99.90;;;;;;5041393;28;19971;-64
2022/11/05 10:20:24;;;;;;;;;;;15.10;99.90;;;;;;5037488;28;19970;-64
2022/11/05 10:22:55;;;;;;;;;;;15.20;99.90;;;;;;5039745;28;20059;-64
2022/11/05 10:25:24;;;;;;;;;;;15.40;99.90;;;;;;5039875;28;19973;-64
2022/11/05 10:27:54;;;;;;;;;;;15.20;99.90;;;;;;5039827;28;19986;-63
2022/11/05 10:30:22;;;;;;;;;;;15.20;99.90;;;;;;5038669;28;20333;-65
2022/11/05 10:32:53;;;;;;;;;;;15.20;99.90;;;;;;5039361;28;20421;-63
2022/11/05 10:35:21;;;;;;;;;;;15.20;99.90;;;;;;5039284;28;20368;-64
2022/11/05 10:37:50;;;;;;;;;;;15.00;99.90;;;;;;5040377;28;19985;-63
2022/11/05 10:40:22;;;;;;;;;;;15.00;99.90;;;;;;5038735;28;19968;-64
2022/11/05 10:43:14;;;;;;;;;;;15.50;99.90;;;;;;5040853;28;19962;-64
2022/11/05 10:45:49;;;;;;;;;;;15.90;99.90;;;;;;5040443;28;19971;-64
2022/11/05 10:48:38;;;;;;;;;;;16.60;99.90;;;;;;5040034;28;20094;-64
2022/11/05 10:51:11;;;;;;;;;;;16.80;99.90;;;;;;5037972;28;19975;-64
2022/11/05 10:53:39;;;;;;;;;;;17.10;99.90;;;;;;5039960;28;20002;-63
2022/11/05 10:56:22;;;;;;;;;;;17.20;99.90;;;;;;5040303;28;19984;-63
2022/11/05 10:58:53;;;;;;;;;;;16.90;99.90;;;;;;5037756;28;19970;-64
2022/11/05 11:01:23;;;;;;;;;;;17.10;99.90;;;;;;5037748;28;20039;-64
2022/11/05 11:03:52;;;;;;;;;;;17.60;99.90;;;;;;5035187;28;19970;-63
2022/11/05 11:06:23;;;;;;;;;;;18.00;99.90;;;;;;5037287;28;20054;-63
2022/11/05 11:08:51;;;;;;;;;;;18.00;99.90;;;;;;5036825;28;19971;-64
2022/11/05 11:11:27;;;;;;;;;;;18.20;99.90;;;;;;5037888;28;19968;-64
2022/11/05 11:13:59;;;;;;;;;;;18.30;99.90;;;;;;5037033;28;19971;-65
2022/11/05 11:16:30;;;;;;;;;;;18.10;99.90;;;;;;5036155;28;19975;-63
2022/11/05 11:18:59;;;;;;;;;;;18.10;99.90;;;;;;5037922;28;19971;-63
2022/11/05 11:21:28;;;;;;;;;;;18.40;99.90;;;;;;5039724;28;19971;-64
2022/11/05 11:23:57;;;;;;;;;;;18.30;99.90;;;;;;5040036;28;19970;-63
2022/11/05 11:26:26;;;;;;;;;;;18.40;99.90;;;;;;5039969;28;20821;-64
2022/11/05 11:28:56;;;;;;;;;;;18.80;99.90;;;;;;5038001;28;19971;-63
2022/11/05 11:31:25;;;;;;;;;;;18.90;99.90;;;;;;5038027;28;19967;-63
2022/11/05 11:33:56;;;;;;;;;;;19.20;99.90;;;;;;5039455;28;19962;-64
2022/11/05 11:36:26;;;;;;;;;;;19.30;99.90;;;;;;5037973;28;19973;-64
2022/11/05 11:38:58;;;;;;;;;;;19.60;99.90;;;;;;5036966;28;20128;-64
2022/11/05 11:41:27;;;;;;;;;;;19.50;99.90;;;;;;5037935;28;20351;-64
2022/11/05 11:43:57;;;;;;;;;;;19.60;99.90;;;;;;5039022;28;19971;-64
2022/11/05 11:46:24;;;;;;;;;;;19.80;99.90;;;;;;5039214;28;19975;-64
2022/11/05 11:48:54;;;;;;;;;;;19.80;99.90;;;;;;5036241;28;20044;-64
2022/11/05 11:51:30;;;;;;;;;;;19.40;99.90;;;;;;5037488;28;19993;-63
2022/11/05 11:53:58;;;;;;;;;;;19.40;99.90;;;;;;5039518;28;19977;-63
2022/11/05 11:56:26;;;;;;;;;;;19.30;99.90;;;;;;5040377;28;20080;-63
2022/11/05 11:58:54;;;;;;;;;;;19.60;99.90;;;;;;5036898;28;19970;-63
2022/11/05 12:01:40;;;;;;;;;;;19.30;99.90;;;;;;5038456;28;20350;-63
2022/11/05 12:04:19;;;;;;;;;;;19.10;99.90;;;;;;5039857;28;20470;-64
2022/11/05 12:06:53;;;;;;;;;;;18.60;99.90;;;;;;5042496;28;19962;-63
2022/11/05 12:09:23;;;;;;;;;;;18.20;99.90;;;;;;5038927;28;20440;-63
2022/11/05 12:11:55;;;;;;;;;;;18.20;99.90;;;;;;5041406;28;19962;-63
2022/11/05 12:14:27;;;;;;;;;;;18.80;99.90;;;;;;5040889;28;20061;-63
2022/11/05 12:17:11;;;;;;;;;;;18.80;99.90;;;;;;5040712;28;20089;-63
2022/11/05 12:19:46;;;;;;;;;;;18.40;99.90;;;;;;5039356;28;20049;-64
2022/11/05 12:22:19;;;;;;;;;;;17.80;99.90;;;;;;5043170;28;19982;-64
2022/11/05 12:24:52;;;;;;;;;;;17.30;99.90;;;;;;5043433;28;19969;-63
2022/11/05 12:27:26;;;;;;;;;;;16.90;99.90;;;;;;5042390;28;19989;-63
2022/11/05 12:29:59;;;;;;;;;;;16.50;99.90;;;;;;5038075;28;19974;-63
2022/11/05 12:32:39;;;;;;;;;;;16.10;99.90;;;;;;5042129;28;19981;-63
2022/11/05 12:35:14;;;;;;;;;;;16.10;99.90;;;;;;5043311;28;19976;-63
2022/11/05 12:37:47;;;;;;;;;;;15.70;99.90;;;;;;5041880;28;20564;-63
2022/11/05 12:40:20;;;;;;;;;;;15.30;99.90;;;;;;5040986;28;20610;-63
2022/11/05 12:42:55;;;;;;;;;;;15.10;99.90;;;;;;5041842;28;20025;-63
2022/11/05 12:45:29;;;;;;;;;;;14.70;99.90;;;;;;5040719;28;19969;-63
2022/11/05 12:48:04;;;;;;;;;;;14.30;99.90;;;;;;5042142;28;19982;-63
2022/11/05 12:50:37;;;;;;;;;;;14.30;99.90;;;;;;5040159;28;20059;-63
2022/11/05 12:53:14;;;;;;;;;;;14.30;99.90;;;;;;5042631;28;19982;-63
2022/11/05 12:55:43;;;;;;;;;;;14.20;99.90;;;;;;5041485;28;19978;-63
2022/11/05 12:58:19;;;;;;;;;;;14.00;99.90;;;;;;5042647;28;20594;-62
2022/11/05 13:00:49;;;;;;;;;;;14.00;99.90;;;;;;5039186;28;19964;-63
2022/11/05 13:03:23;;;;;;;;;;;13.80;99.90;;;;;;5041045;28;19971;-63
2022/11/05 13:05:54;;;;;;;;;;;13.80;99.90;;;;;;5043009;28;19968;-63
2022/11/05 13:08:25;;;;;;;;;;;13.90;99.90;;;;;;5041854;28;19974;-63
2022/11/05 13:10:55;;;;;;;;;;;13.90;99.90;;;;;;5039343;28;20063;-63
2022/11/05 13:13:26;;;;;;;;;;;13.80;99.90;;;;;;5042261;28;20049;-63
2022/11/05 13:15:55;;;;;;;;;;;13.70;99.90;;;;;;5040231;28;20449;-64
2022/11/05 13:18:26;;;;;;;;;;;13.80;99.90;;;;;;5042047;28;19964;-63
2022/11/05 13:20:56;;;;;;;;;;;13.70;99.90;;;;;;5039898;28;20432;-63
2022/11/05 13:23:29;;;;;;;;;;;13.70;99.90;;;;;;5041609;28;19971;-63
2022/11/05 13:25:59;;;;;;;;;;;13.40;99.90;;;;;;5042488;28;19975;-63
2022/11/05 13:28:45;;;;;;;;;;;13.40;99.90;;;;;;5042702;28;19968;-64
2022/11/05 13:31:17;;;;;;;;;;;13.30;99.90;;;;;;5042459;28;19979;-63
2022/11/05 13:33:47;;;;;;;;;;;13.30;99.90;;;;;;5041846;28;19994;-62
2022/11/05 13:39:09;;;;;;;;;;;13.30;99.90;;;;;;5040182;28;19979;-62
2022/11/05 13:41:44;;;;;;;;;;;13.10;99.90;;;;;;5041813;28;19972;-63
2022/11/05 13:44:29;;;;;;;;;;;13.00;99.90;;;;;;5041372;28;19972;-62
2022/11/05 13:47:16;;;;;;;;;;;13.00;99.90;;;;;;5016438;28;20782;-63
2022/11/05 13:49:57;;;;;;;;;;;12.80;99.90;;;;;;5037981;28;19967;-63
2022/11/05 13:52:36;;;;;;;;;;;12.80;99.90;;;;;;5037644;28;19991;-63
2022/11/05 13:55:14;;;;;;;;;;;12.90;99.90;;;;;;5038576;28;19990;-63
2022/11/05 13:57:49;;;;;;;;;;;13.00;99.90;;;;;;5038021;28;20090;-62
2022/11/05 14:00:18;;;;;;;;;;;13.00;99.90;;;;;;5036517;28;19993;-63
2022/11/05 14:02:49;;;;;;;;;;;12.90;99.90;;;;;;5037759;28;20352;-63
2022/11/05 14:05:22;;;;;;;;;;;12.90;99.90;;;;;;5038537;28;19968;-62
2022/11/05 14:07:52;;;;;;;;;;;12.90;99.90;;;;;;5038901;28;19970;-62
2022/11/05 14:10:37;;;;;;;;;;;12.90;99.90;;;;;;5037848;28;20468;-63
2022/11/05 14:13:16;;;;;;;;;;;12.80;99.90;;;;;;5039548;28;19972;-62
2022/11/05 14:15:55;;;;;;;;;;;12.70;99.90;;;;;;5039389;28;19971;-65
2022/11/05 14:18:36;;;;;;;;;;;12.60;99.90;;;;;;5038188;28;19968;-63
2022/11/05 14:21:04;;;;;;;;;;;12.60;99.90;;;;;;5038364;28;19972;-62
2022/11/05 14:23:41;;;;;;;;;;;12.40;99.90;;;;;;5039173;28;19979;-62
2022/11/05 14:26:14;;;;;;;;;;;12.40;99.90;;;;;;5038389;28;20017;-63
2022/11/05 14:28:44;;;;;;;;;;;12.30;99.90;;;;;;5037151;28;20782;-63
2022/11/05 14:31:22;;;;;;;;;;;12.20;99.90;;;;;;5038074;28;19972;-62
2022/11/05 14:34:18;;;;;;;;;;;12.10;99.90;;;;;;5039153;28;20523;-62
2022/11/05 14:36:46;;;;;;;;;;;12.00;99.90;;;;;;5037269;28;19968;-62
2022/11/05 14:39:25;;;;;;;;;;;11.90;99.90;;;;;;5036822;28;19968;-63
2022/11/05 14:41:56;;;;;;;;;;;11.70;99.90;;;;;;5038415;28;19964;-62
2022/11/05 14:44:24;;;;;;;;;;;11.60;99.90;;;;;;5037959;28;20592;-62
2022/11/05 14:46:53;;;;;;;;;;;11.40;99.90;;;;;;5038017;28;19964;-62
2022/11/05 14:49:22;;;;;;;;;;;11.40;99.90;;;;;;5037404;28;20429;-62
2022/11/05 14:51:51;;;;;;;;;;;11.40;99.90;;;;;;5039234;28;19964;-64
2022/11/05 14:54:21;;;;;;;;;;;11.40;99.90;;;;;;5037731;28;19968;-63
2022/11/05 14:56:50;;;;;;;;;;;11.40;99.90;;;;;;5038568;28;19964;-63
2022/11/05 14:59:47;;;;;;;;;;;11.40;99.90;;;;;;5035081;28;19968;-62
2022/11/05 15:02:17;;;;;;;;;;;11.40;99.90;;;;;;5028297;28;19976;-62
2022/11/05 15:04:46;;;;;;;;;;;11.40;99.90;;;;;;5036809;28;19979;-63
2022/11/05 15:07:29;;;;;;;;;;;11.30;99.90;;;;;;5037684;28;19972;-62
2022/11/05 15:10:00;;;;;;;;;;;11.40;99.90;;;;;;5035985;28;19972;-63
2022/11/05 15:12:37;;;;;;;;;;;11.40;99.90;;;;;;5038805;28;19980;-63
2022/11/05 15:15:15;;;;;;;;;;;11.40;99.90;;;;;;5038634;28;20484;-62
2022/11/05 15:17:56;;;;;;;;;;;11.40;99.90;;;;;;5037601;28;19963;-62
2022/11/05 15:20:31;;;;;;;;;;;11.40;99.90;;;;;;5033392;28;19978;-63
2022/11/05 15:23:07;;;;;;;;;;;11.40;99.90;;;;;;5038122;28;19975;-62